Time;durP1;ratioP1;P1;durP2;ratioP2;P2;SDS_P1;SDS_P2;PMS_P1;PMS_P2;Temp;Humidity;BMP_temperature;BMP_pressure;BME280_temperature;BME280_humidity;BME280_pressure;Samples;Min_cycle;Max_cycle;Signal;HPM_P1;HPM_P2
2021/05/04 00:00:21;;;;;;;39.03;21.33;;;;;;;8.83;74.00;100184.69;5017970;28;20065;-69
2021/05/04 00:02:48;;;;;;;49.60;27.70;;;;;;;8.80;72.65;100174.16;5019580;28;20054;-68
2021/05/04 00:05:15;;;;;;;57.45;30.48;;;;;;;8.75;74.23;100161.03;5019815;28;20072;-69
2021/05/04 00:07:41;;;;;;;90.70;42.80;;;;;;;8.68;74.43;100161.31;5020588;28;20072;-71
2021/05/04 00:10:10;;;;;;;93.60;47.22;;;;;;;8.65;74.78;100167.63;5019340;28;20084;-71
2021/05/04 00:12:37;;;;;;;80.85;40.00;;;;;;;8.58;75.53;100158.09;5019840;28;20069;-71
2021/05/04 00:15:06;;;;;;;55.40;30.20;;;;;;;8.51;75.73;100148.59;5019157;28;20096;-71
2021/05/04 00:17:33;;;;;;;49.75;24.92;;;;;;;8.46;76.92;100127.47;5021787;28;20203;-71
2021/05/04 00:20:00;;;;;;;29.58;16.80;;;;;;;8.44;76.58;100123.16;5016534;28;20065;-71
2021/05/04 00:22:27;;;;;;;23.90;13.52;;;;;;;8.40;77.64;100117.03;5023503;28;20465;-71
2021/05/04 00:24:53;;;;;;;20.63;13.13;;;;;;;8.35;77.20;100113.66;5015654;28;20277;-71
2021/05/04 00:27:20;;;;;;;20.33;11.70;;;;;;;8.33;77.39;100105.75;5019999;28;20062;-71
2021/05/04 00:29:48;;;;;;;24.00;11.52;;;;;;;8.39;77.27;100107.31;5018950;28;20057;-72
2021/05/04 00:32:15;;;;;;;18.40;10.65;;;;;;;8.46;76.28;100102.69;5018967;28;20105;-71
2021/05/04 00:34:42;;;;;;;18.45;11.70;;;;;;;8.40;77.08;100095.75;5019498;28;20058;-71
2021/05/04 00:37:08;;;;;;;19.63;10.57;;;;;;;8.37;77.59;100088.75;5031572;28;20391;-70
2021/05/04 00:39:37;;;;;;;20.33;9.23;;;;;;;8.36;77.35;100070.19;5020963;28;20139;-69
2021/05/04 00:42:05;;;;;;;16.75;9.05;;;;;;;8.33;77.53;100070.31;5015592;28;20057;-70
2021/05/04 00:44:32;;;;;;;21.73;10.20;;;;;;;8.21;78.86;100058.31;5018985;28;20068;-69
2021/05/04 00:47:01;;;;;;;18.90;9.70;;;;;;;8.13;80.40;100050.59;5018974;28;20195;-68
2021/05/04 00:49:28;;;;;;;17.58;10.00;;;;;;;8.11;80.02;100041.81;5018007;28;20072;-69
2021/05/04 00:51:55;;;;;;;16.60;10.25;;;;;;;8.08;80.92;100025.97;5016546;28;20552;-69
2021/05/04 00:54:24;;;;;;;14.50;8.30;;;;;;;8.06;79.25;100035.81;5017971;28;20076;-68
2021/05/04 00:56:53;;;;;;;14.32;8.35;;;;;;;8.02;80.09;100013.78;5017405;28;20069;-69
2021/05/04 00:59:22;;;;;;;14.88;8.25;;;;;;;8.00;79.46;100010.31;5020878;28;20063;-70
2021/05/04 01:01:49;;;;;;;15.20;9.00;;;;;;;7.99;79.88;100015.69;5012134;28;20066;-70
2021/05/04 01:04:18;;;;;;;18.02;8.15;;;;;;;8.04;78.66;99988.03;5021262;28;20609;-69
2021/05/04 01:06:45;;;;;;;15.02;7.90;;;;;;;8.09;78.39;99979.00;5017296;28;20073;-68
2021/05/04 01:09:14;;;;;;;12.45;7.18;;;;;;;8.09;78.33;99987.88;5018795;28;20087;-69
2021/05/04 01:11:41;;;;;;;14.23;7.68;;;;;;;8.12;78.09;99987.78;5017538;28;20112;-68
2021/05/04 01:14:09;;;;;;;13.13;8.07;;;;;;;8.11;79.09;99974.53;5019556;28;20084;-68
2021/05/04 01:16:36;;;;;;;14.48;7.82;;;;;;;8.13;78.28;99972.69;5021935;28;20070;-67
2021/05/04 01:19:03;;;;;;;17.05;8.27;;;;;;;8.16;77.71;99972.59;5013163;28;20065;-69
2021/05/04 01:21:30;;;;;;;11.02;7.13;;;;;;;8.16;77.42;99951.31;5021107;28;20098;-68
2021/05/04 01:23:57;;;;;;;14.80;7.80;;;;;;;8.18;77.90;99944.16;5016489;28;20247;-69
2021/05/04 01:26:24;;;;;;;16.58;8.63;;;;;;;8.19;78.49;99938.78;5019278;28;20076;-70
2021/05/04 01:28:51;;;;;;;14.15;8.02;;;;;;;8.22;77.85;99940.44;5018860;28;20351;-69
2021/05/04 01:31:17;;;;;;;11.82;7.57;;;;;;;8.22;78.10;99940.44;5017877;28;20057;-69
2021/05/04 01:33:44;;;;;;;12.85;7.80;;;;;;;8.22;78.14;99898.81;5019482;28;20057;-68
2021/05/04 01:36:11;;;;;;;15.95;8.27;;;;;;;8.24;78.46;99925.34;5016126;28;20345;-69
2021/05/04 01:38:39;;;;;;;16.92;7.25;;;;;;;8.25;77.31;99907.59;5018836;28;20058;-68
2021/05/04 01:41:06;;;;;;;14.93;7.78;;;;;;;8.24;77.86;99901.41;5019325;28;20058;-71
2021/05/04 01:43:32;;;;;;;11.50;7.00;;;;;;;8.28;76.71;99896.84;5010763;28;20447;-69
2021/05/04 01:46:00;;;;;;;13.45;7.57;;;;;;;8.30;76.78;99887.03;5022694;28;20470;-71
2021/05/04 01:48:27;;;;;;;11.82;5.85;;;;;;;8.32;76.69;99890.47;5013966;28;24412;-71
2021/05/04 01:50:54;;;;;;;10.75;6.00;;;;;;;8.31;78.02;99872.78;5020815;28;20065;-71
2021/05/04 01:53:21;;;;;;;11.85;6.47;;;;;;;8.31;77.58;99878.09;5017906;28;20065;-71
2021/05/04 01:55:48;;;;;;;12.60;7.38;;;;;;;8.24;77.90;99866.88;5020843;28;20080;-72
2021/05/04 01:58:17;;;;;;;11.27;6.63;;;;;;;8.25;78.21;99852.63;5023720;28;20079;-71
2021/05/04 02:00:43;;;;;;;10.18;6.43;;;;;;;8.32;78.15;99847.97;5018457;28;20060;-71
2021/05/04 02:03:10;;;;;;;14.25;7.53;;;;;;;8.32;78.34;99843.50;5039601;28;20064;-71
2021/05/04 02:05:37;;;;;;;10.00;5.47;;;;;;;8.32;77.59;99848.81;5017982;28;20057;-71
2021/05/04 02:08:05;;;;;;;11.90;5.57;;;;;;;8.36;77.56;99837.16;5022860;28;20093;-71
2021/05/04 02:10:32;;;;;;;14.25;6.97;;;;;;;8.32;77.71;99818.72;5019835;28;20076;-72
2021/05/04 02:12:59;;;;;;;12.13;6.90;;;;;;;8.23;78.33;99825.25;5020992;28;20065;-71
2021/05/04 02:15:26;;;;;;;12.32;7.13;;;;;;;8.13;80.18;99806.13;5022074;28;20062;-71
2021/05/04 02:17:53;;;;;;;10.10;6.13;;;;;;;7.99;80.74;99804.00;5019420;28;20069;-69
2021/05/04 02:20:19;;;;;;;10.07;6.22;;;;;;;7.92;81.35;99799.84;5020490;28;20061;-69
2021/05/04 02:22:46;;;;;;;14.35;6.68;;;;;;;7.87;82.33;99799.16;5022369;28;20152;-69
2021/05/04 02:25:14;;;;;;;10.65;6.10;;;;;;;7.75;83.24;99803.16;5017866;28;20280;-69
2021/05/04 02:27:41;;;;;;;17.45;7.63;;;;;;;7.66;83.92;99791.06;5024331;28;20072;-69
2021/05/04 02:30:10;;;;;;;13.32;6.93;;;;;;;7.61;84.13;99781.53;5017369;28;20061;-69
2021/05/04 02:32:36;;;;;;;17.33;7.68;;;;;;;7.56;84.72;99781.72;5019918;28;20079;-69
2021/05/04 02:35:04;;;;;;;14.80;7.22;;;;;;;7.56;85.38;99794.09;5018563;28;20107;-68
2021/05/04 02:37:31;;;;;;;15.70;7.93;;;;;;;7.50;86.13;99802.31;5021159;28;20084;-69
2021/05/04 02:39:58;;;;;;;15.77;8.30;;;;;;;7.45;85.93;99792.69;5024771;28;20050;-69
2021/05/04 02:42:25;;;;;;;14.43;7.78;;;;;;;7.51;85.34;99765.09;5018177;28;20061;-69
2021/05/04 02:44:52;;;;;;;13.90;7.97;;;;;;;7.48;85.25;99774.00;5024354;28;20448;-68
2021/05/04 02:47:19;;;;;;;16.50;8.93;;;;;;;7.44;86.81;99780.38;5017914;28;20071;-67
2021/05/04 02:49:48;;;;;;;14.85;8.20;;;;;;;7.43;86.44;99759.19;5021131;28;20148;-68
2021/05/04 02:52:14;;;;;;;13.52;7.18;;;;;;;7.40;86.50;99736.25;5018757;28;20131;-68
2021/05/04 02:54:42;;;;;;;14.52;7.50;;;;;;;7.44;86.27;99731.72;5020666;28;20080;-68
2021/05/04 02:57:08;;;;;;;12.68;7.28;;;;;;;7.46;85.70;99736.06;5019544;28;20389;-68
2021/05/04 02:59:36;;;;;;;16.45;6.55;;;;;;;7.51;84.67;99717.31;5020576;28;20181;-71
2021/05/04 03:02:02;;;;;;;12.70;6.82;;;;;;;7.58;84.18;99709.97;5019150;28;20072;-69
2021/05/04 03:04:30;;;;;;;12.18;6.80;;;;;;;7.66;83.51;99690.19;5020051;28;20068;-69
2021/05/04 03:06:57;;;;;;;14.40;6.47;;;;;;;7.69;83.81;99702.47;5019138;28;20381;-69
2021/05/04 03:09:24;;;;;;;15.07;7.40;;;;;;;7.70;83.57;99692.72;5023130;28;20084;-69
2021/05/04 03:11:51;;;;;;;11.73;6.30;;;;;;;7.71;83.20;99697.94;5017324;28;20064;-68
2021/05/04 03:14:18;;;;;;;10.70;5.65;;;;;;;7.79;82.76;99692.34;5023205;28;20064;-68
2021/05/04 03:16:45;;;;;;;10.00;6.30;;;;;;;7.75;83.03;99706.69;5019028;28;20088;-68
2021/05/04 03:19:12;;;;;;;13.90;6.38;;;;;;;7.73;83.50;99693.47;5021769;28;20053;-68
2021/05/04 03:21:40;;;;;;;11.02;6.97;;;;;;;7.74;83.74;99695.19;5023467;28;20911;-68
2021/05/04 03:24:07;;;;;;;10.10;5.95;;;;;;;7.73;83.93;99703.19;5018692;28;21437;-68
2021/05/04 03:26:34;;;;;;;15.02;6.45;;;;;;;7.82;83.27;99703.72;5022632;28;20127;-68
2021/05/04 03:29:01;;;;;;;11.50;5.82;;;;;;;7.79;83.71;99684.38;5017690;28;20097;-68
2021/05/04 03:31:27;;;;;;;10.40;7.00;;;;;;;7.81;83.39;99686.03;5022593;28;20067;-69
2021/05/04 03:33:54;;;;;;;13.77;6.35;;;;;;;7.83;83.00;99668.28;5019126;28;20072;-69
2021/05/04 03:36:21;;;;;;;13.45;6.57;;;;;;;7.88;82.43;99684.00;5020588;28;20065;-68
2021/05/04 03:38:49;;;;;;;12.15;6.45;;;;;;;7.89;82.86;99653.88;5021989;28;20074;-68
2021/05/04 03:41:15;;;;;;;10.93;5.75;;;;;;;7.93;82.48;99670.56;5019791;28;20076;-69
2021/05/04 03:43:42;;;;;;;11.68;6.03;;;;;;;7.90;82.94;99666.25;5019408;28;20057;-69
2021/05/04 03:46:09;;;;;;;9.95;5.60;;;;;;;7.95;83.30;99671.34;5018752;28;20519;-68
2021/05/04 03:48:36;;;;;;;9.77;4.93;;;;;;;8.01;82.23;99653.38;5018557;28;20752;-69
2021/05/04 03:51:03;;;;;;;13.15;5.93;;;;;;;8.00;82.31;99659.66;5020871;28;20249;-68
2021/05/04 03:53:31;;;;;;;11.65;5.78;;;;;;;8.03;82.67;99653.31;5017132;28;20057;-69
2021/05/04 03:55:59;;;;;;;12.23;6.07;;;;;;;8.00;83.09;99659.66;5024693;28;20108;-69
2021/05/04 03:58:25;;;;;;;14.35;6.68;;;;;;;8.04;82.75;99658.56;5017415;28;20184;-69
2021/05/04 04:00:52;;;;;;;14.32;7.35;;;;;;;8.09;83.15;99645.13;5019151;28;20296;-70
2021/05/04 04:03:19;;;;;;;13.88;7.22;;;;;;;8.15;82.74;99651.97;5020304;28;20061;-71
2021/05/04 04:05:46;;;;;;;14.18;7.43;;;;;;;8.17;82.91;99636.81;5017744;28;20143;-71
2021/05/04 04:08:12;;;;;;;13.27;6.25;;;;;;;8.17;83.09;99623.53;5023231;28;20065;-71
2021/05/04 04:10:41;;;;;;;16.83;8.10;;;;;;;8.19;83.58;99621.69;5016024;28;20093;-70
2021/05/04 04:13:08;;;;;;;21.45;7.45;;;;;;;8.16;83.80;99630.66;5021427;28;20060;-70
2021/05/04 04:15:35;;;;;;;13.98;6.60;;;;;;;8.18;84.40;99634.09;5018261;28;20057;-69
2021/05/04 04:18:02;;;;;;;16.35;9.00;;;;;;;8.14;85.08;99619.22;5019997;28;20107;-69
2021/05/04 04:20:29;;;;;;;16.30;9.35;;;;;;;8.08;85.62;99623.91;5018511;28;20061;-68
2021/05/04 04:22:56;;;;;;;21.05;9.00;;;;;;;8.14;83.67;99613.91;5018845;28;20057;-68
2021/05/04 04:25:23;;;;;;;18.05;10.30;;;;;;;8.17;83.35;99588.97;5017878;28;20340;-69
2021/05/04 04:27:50;;;;;;;24.58;11.90;;;;;;;8.17;83.86;99627.06;5019504;28;20061;-69
2021/05/04 04:30:19;;;;;;;22.48;11.15;;;;;;;8.17;84.07;99632.38;5018394;28;21000;-69
2021/05/04 04:32:46;;;;;;;19.92;10.65;;;;;;;8.16;83.68;99617.34;5021691;28;20053;-68
2021/05/04 04:35:14;;;;;;;21.30;9.07;;;;;;;8.15;84.58;99610.31;5014616;28;20053;-69
2021/05/04 04:37:40;;;;;;;13.68;6.40;;;;;;;8.14;84.82;99613.91;5020959;28;20111;-69
2021/05/04 04:40:09;;;;;;;26.30;7.25;;;;;;;8.20;84.20;99615.44;5017265;28;20159;-69
2021/05/04 04:42:36;;;;;;;22.23;7.63;;;;;;;8.25;83.99;99594.84;5017918;28;20068;-69
2021/05/04 04:45:03;;;;;;;18.08;7.93;;;;;;;8.26;84.39;99596.59;5018430;28;20412;-69
2021/05/04 04:47:31;;;;;;;21.48;7.03;;;;;;;8.32;83.98;99592.78;5016177;28;20119;-70
2021/05/04 04:49:58;;;;;;;33.80;7.53;;;;;;;8.38;82.95;99593.41;5021406;28;20060;-69
2021/05/04 04:52:25;;;;;;;26.23;6.72;;;;;;;8.49;82.17;99611.56;5012977;28;20073;-69
2021/05/04 04:54:52;;;;;;;32.33;7.15;;;;;;;8.48;82.38;99593.91;5019442;28;20084;-70
2021/05/04 04:57:19;;;;;;;32.95;7.30;;;;;;;8.49;81.42;99586.78;5015926;28;20440;-69
2021/05/04 04:59:48;;;;;;;22.95;5.55;;;;;;;8.50;81.05;99586.72;5018281;28;20076;-70
2021/05/04 05:02:16;;;;;;;31.20;7.32;;;;;;;8.53;80.61;99597.22;5018818;28;20487;-71
2021/05/04 05:04:44;;;;;;;23.75;5.35;;;;;;;8.53;80.05;99591.91;5017900;28;20451;-70
2021/05/04 05:07:11;;;;;;;18.25;5.55;;;;;;;8.59;78.43;99573.00;5018378;28;20105;-71
2021/05/04 05:09:39;;;;;;;25.02;4.75;;;;;;;8.68;77.28;99581.53;5016106;28;20060;-71
2021/05/04 05:12:06;;;;;;;25.10;4.63;;;;;;;8.68;77.26;99571.75;5018009;28;20057;-71
2021/05/04 05:14:35;;;;;;;18.10;4.20;;;;;;;8.76;76.15;99579.41;5019360;28;20073;-71
2021/05/04 05:17:02;;;;;;;15.25;4.03;;;;;;;8.80;75.87;99578.31;5015903;28;20076;-71
2021/05/04 05:19:30;;;;;;;16.70;3.72;;;;;;;9.10;74.81;99561.91;5020946;28;20503;-71
2021/05/04 05:21:58;;;;;;;15.48;3.58;;;;;;;9.26;74.39;99560.25;5015155;28;20384;-71
2021/05/04 05:24:25;;;;;;;15.18;3.45;;;;;;;9.28;74.00;99560.16;5019212;28;21097;-71
2021/05/04 05:26:52;;;;;;;19.63;5.63;;;;;;;9.24;73.91;99578.09;5018748;28;20356;-71
2021/05/04 05:29:19;;;;;;;13.85;3.75;;;;;;;9.14;74.72;99572.34;5014347;28;20487;-71
2021/05/04 05:31:47;;;;;;;23.27;4.82;;;;;;;9.11;74.37;99588.44;5021232;28;20149;-72
2021/05/04 05:34:14;;;;;;;11.65;3.67;;;;;;;9.13;74.31;99583.06;5016257;28;20120;-72
2021/05/04 05:36:41;;;;;;;14.77;3.40;;;;;;;9.19;74.00;99574.78;5020945;28;20080;-72
2021/05/04 05:39:09;;;;;;;13.85;3.45;;;;;;;9.15;74.26;99599.81;5013180;28;20476;-72
2021/05/04 05:41:35;;;;;;;19.88;4.55;;;;;;;9.13;76.00;99605.19;5018750;28;20065;-72
2021/05/04 05:44:03;;;;;;;24.05;5.38;;;;;;;9.09;76.02;99587.66;5016117;28;20065;-72
2021/05/04 05:46:30;;;;;;;23.88;4.97;;;;;;;9.08;77.36;99612.53;5017484;28;20080;-73
2021/05/04 05:48:58;;;;;;;25.85;4.78;;;;;;;9.08;77.82;99601.88;5017915;28;20415;-73
2021/05/04 05:51:25;;;;;;;26.27;5.53;;;;;;;8.96;78.38;99599.78;5015253;28;20065;-72
2021/05/04 05:53:52;;;;;;;20.67;5.22;;;;;;;8.94;78.84;99601.66;5018001;28;20162;-72
2021/05/04 05:56:21;;;;;;;35.83;6.00;;;;;;;8.97;78.63;99615.69;5016611;28;20069;-73
2021/05/04 05:58:47;;;;;;;24.60;6.28;;;;;;;8.99;78.90;99612.97;5015795;28;20108;-73
2021/05/04 06:01:14;;;;;;;24.20;5.60;;;;;;;9.04;79.10;99604.75;5019064;28;20070;-74
2021/05/04 06:03:41;;;;;;;32.63;6.80;;;;;;;8.97;79.22;99602.38;5017590;28;20246;-73
2021/05/04 06:06:07;;;;;;;23.13;6.63;;;;;;;9.01;78.84;99613.75;5017224;28;20057;-73
2021/05/04 06:08:34;;;;;;;35.78;7.05;;;;;;;9.00;79.16;99596.03;5015960;28;20061;-73
2021/05/04 06:11:01;;;;;;;40.33;7.55;;;;;;;9.07;78.79;99591.31;5016050;28;20065;-74
2021/05/04 06:13:29;;;;;;;28.77;6.20;;;;;;;9.10;77.75;99597.34;5020237;28;20290;-73
2021/05/04 06:15:56;;;;;;;23.02;6.45;;;;;;;9.14;77.92;99595.41;5015074;28;20053;-73
2021/05/04 06:18:23;;;;;;;22.30;5.57;;;;;;;9.14;78.16;99598.06;5019307;28;20077;-72
2021/05/04 06:20:50;;;;;;;40.25;9.07;;;;;;;9.12;78.19;99594.63;5013076;28;20065;-74
2021/05/04 06:23:17;;;;;;;41.28;7.38;;;;;;;9.17;78.17;99597.94;5020117;28;20057;-73
2021/05/04 06:25:44;;;;;;;33.95;6.63;;;;;;;9.15;77.96;99595.34;5015077;28;20558;-74
2021/05/04 06:28:10;;;;;;;29.73;6.72;;;;;;;9.14;77.28;99584.75;5018475;28;20418;-72
2021/05/04 06:30:39;;;;;;;35.30;7.85;;;;;;;9.10;77.01;99591.19;5015409;28;20062;-74
2021/05/04 06:33:08;;;;;;;28.42;5.90;;;;;;;9.11;77.27;99616.88;5018155;28;20062;-73
2021/05/04 06:35:38;;;;;;;30.30;6.40;;;;;;;9.18;76.20;99586.38;5015912;28;20408;-73
2021/05/04 06:38:05;;;;;;;27.10;6.15;;;;;;;9.22;76.22;99598.59;5012805;28;20111;-73
2021/05/04 06:40:33;;;;;;;24.33;5.55;;;;;;;9.25;75.79;99600.25;5029293;28;20420;-73
2021/05/04 06:43:00;;;;;;;25.38;5.32;;;;;;;9.28;75.31;99595.66;5022158;28;20064;-72
2021/05/04 06:45:28;;;;;;;27.80;6.47;;;;;;;9.27;75.95;99590.41;5021467;28;20142;-72
2021/05/04 06:47:56;;;;;;;29.85;6.00;;;;;;;9.26;76.48;99586.88;5015777;28;20105;-74
2021/05/04 06:50:23;;;;;;;29.65;6.07;;;;;;;9.32;75.73;99594.56;5021385;28;20340;-72
2021/05/04 06:52:50;;;;;;;26.13;6.40;;;;;;;9.33;75.82;99598.97;5019846;28;20344;-71
2021/05/04 06:55:17;;;;;;;31.17;6.65;;;;;;;9.39;75.88;99591.63;5020939;28;20056;-73
2021/05/04 06:57:44;;;;;;;28.33;8.48;;;;;;;9.42;75.42;99583.50;5017819;28;20061;-72
2021/05/04 07:00:13;;;;;;;27.92;6.22;;;;;;;9.47;75.11;99586.81;5019124;28;20084;-72
2021/05/04 07:02:40;;;;;;;27.45;5.03;;;;;;;9.59;75.04;99564.06;5016321;28;20061;-72
2021/05/04 07:05:09;;;;;;;23.50;5.60;;;;;;;9.51;74.66;99570.59;5019948;28;20162;-72
2021/05/04 07:07:36;;;;;;;25.48;5.63;;;;;;;9.51;75.02;99586.56;5018001;28;20061;-72
2021/05/04 07:10:03;;;;;;;25.17;7.25;;;;;;;9.43;74.36;99591.41;5024502;28;20112;-72
2021/05/04 07:12:30;;;;;;;26.17;5.90;;;;;;;9.41;75.55;99587.09;5018908;28;20086;-72
2021/05/04 07:14:57;;;;;;;21.90;4.97;;;;;;;9.40;75.24;99593.34;5023779;28;20053;-72
2021/05/04 07:17:25;;;;;;;23.38;6.05;;;;;;;9.46;74.66;99596.56;5017689;28;20069;-72
2021/05/04 07:19:54;;;;;;;29.90;5.75;;;;;;;9.60;75.07;99592.41;5020588;28;20065;-72
2021/05/04 07:22:25;;;;;;;20.42;6.15;;;;;;;9.64;72.91;99589.53;5024209;28;20062;-71
2021/05/04 07:24:51;;;;;;;32.70;5.95;;;;;;;9.69;72.74;99584.84;5019670;28;20452;-71
2021/05/04 07:27:18;;;;;;;32.50;6.43;;;;;;;9.78;73.05;99588.84;5019672;28;20087;-70
2021/05/04 07:29:46;;;;;;;27.45;5.75;;;;;;;9.77;72.59;99581.78;5019208;28;20119;-72
2021/05/04 07:32:16;;;;;;;27.75;6.10;;;;;;;9.75;73.05;99593.47;5022022;28;20064;-72
2021/05/04 07:34:48;;;;;;;21.45;5.13;;;;;;;9.68;73.30;99592.91;5020230;28;20076;-72
2021/05/04 07:37:15;;;;;;;28.60;5.25;;;;;;;9.76;73.36;99579.22;5019121;28;20054;-72
2021/05/04 07:39:43;;;;;;;22.77;5.03;;;;;;;9.62;72.12;99593.19;5021707;28;20148;-72
2021/05/04 07:42:11;;;;;;;22.95;5.10;;;;;;;9.61;72.50;99591.47;5018789;28;20053;-72
2021/05/04 07:44:39;;;;;;;27.10;4.93;;;;;;;9.66;72.41;99587.66;5017996;28;20060;-72
2021/05/04 07:47:07;;;;;;;27.48;4.88;;;;;;;9.68;72.19;99592.91;5020566;28;20157;-72
2021/05/04 07:49:36;;;;;;;28.58;5.88;;;;;;;9.69;71.48;99587.50;5017691;28;20069;-72
2021/05/04 07:52:04;;;;;;;18.30;4.28;;;;;;;9.68;71.83;99588.44;5023003;28;20177;-72
2021/05/04 07:54:31;;;;;;;16.35;4.30;;;;;;;9.75;72.19;99590.81;5014490;28;20085;-73
2021/05/04 07:56:59;;;;;;;16.23;3.95;;;;;;;9.70;72.41;99593.69;5017928;28;20061;-73
2021/05/04 07:59:26;;;;;;;18.15;4.32;;;;;;;9.64;71.99;99602.00;5012956;28;20057;-73
2021/05/04 08:01:53;;;;;;;21.05;4.40;;;;;;;9.73;71.57;99593.53;5015405;28;20075;-73
2021/05/04 08:04:20;;;;;;;24.38;4.72;;;;;;;9.71;71.83;99587.44;5015843;28;20072;-73
2021/05/04 08:06:47;;;;;;;18.75;5.22;;;;;;;9.70;73.85;99591.91;5021709;28;20092;-73
2021/05/04 08:09:14;;;;;;;24.08;4.45;;;;;;;9.45;74.81;99596.63;5032155;28;20061;-73
2021/05/04 08:11:46;;;;;;;19.30;4.47;;;;;;;9.38;76.38;99597.88;5012015;28;20148;-73
2021/05/04 08:14:14;;;;;;;18.92;4.60;;;;;;;9.45;76.97;99605.50;5014495;28;20067;-73
2021/05/04 08:16:41;;;;;;;22.08;4.00;;;;;;;9.40;76.07;99607.53;5010846;28;20294;-73
2021/05/04 08:19:08;;;;;;;19.98;3.90;;;;;;;9.26;76.68;99607.28;5015115;28;20068;-73
2021/05/04 08:21:35;;;;;;;17.63;3.35;;;;;;;9.14;76.69;99595.41;5011203;28;20066;-73
2021/05/04 08:24:03;;;;;;;17.92;3.80;;;;;;;9.19;77.31;99595.22;5011527;28;20053;-73
2021/05/04 08:26:30;;;;;;;16.85;3.47;;;;;;;9.12;77.12;99576.00;5010803;28;20073;-73
2021/05/04 08:28:57;;;;;;;20.05;3.42;;;;;;;9.15;79.20;99587.34;5012668;28;20057;-74
2021/05/04 08:31:24;;;;;;;21.00;4.85;;;;;;;9.21;79.42;99570.25;5014696;28;20065;-73
2021/05/04 08:33:51;;;;;;;22.80;4.95;;;;;;;9.19;78.19;99565.94;5014333;28;20379;-73
2021/05/04 08:36:18;;;;;;;25.45;5.45;;;;;;;9.29;79.29;99591.19;5011607;28;20053;-73
2021/05/04 08:38:45;;;;;;;26.42;5.47;;;;;;;9.18;78.12;99583.72;5011929;28;20216;-74
2021/05/04 08:41:15;;;;;;;31.95;5.65;;;;;;;9.22;78.96;99584.44;5012689;28;20095;-75
2021/05/04 08:43:45;;;;;;;37.67;7.30;;;;;;;9.28;79.21;99573.47;5030354;28;20049;-77
2021/05/04 08:46:12;;;;;;;27.08;5.97;;;;;;;9.31;77.84;99562.69;5010681;28;20067;-76
2021/05/04 08:48:43;;;;;;;23.90;5.35;;;;;;;9.15;79.42;99578.53;5013055;28;20057;-73
2021/05/04 08:51:11;;;;;;;18.65;3.90;;;;;;;8.96;79.28;99581.16;5010613;28;20058;-72
2021/05/04 08:53:58;;;;;;;19.75;4.28;;;;;;;8.95;79.25;99587.41;5012314;28;20548;-72
2021/05/04 08:56:25;;;;;;;19.55;4.75;;;;;;;9.21;80.70;99570.25;5013148;28;20068;-73
2021/05/04 08:58:51;;;;;;;21.52;5.25;;;;;;;9.23;79.60;99579.03;5025869;28;20069;-74
2021/05/04 09:01:18;;;;;;;26.80;5.57;;;;;;;9.12;79.23;99566.19;5012232;28;20070;-73
2021/05/04 09:03:47;;;;;;;19.45;4.40;;;;;;;9.06;79.64;99592.22;5008850;28;20141;-73
2021/05/04 09:06:15;;;;;;;16.10;4.18;;;;;;;9.08;77.69;99593.06;5010767;28;20503;-73
2021/05/04 09:08:46;;;;;;;19.08;4.00;;;;;;;9.08;77.23;99598.38;5010914;28;20077;-72
2021/05/04 09:11:20;;;;;;;14.23;3.92;;;;;;;8.94;76.61;99618.47;5013591;28;20061;-73
2021/05/04 09:13:51;;;;;;;12.95;3.67;;;;;;;8.86;75.15;99631.25;5008395;28;20065;-73
2021/05/04 09:19:17;;;;;;;12.05;2.38;;;;;;;9.01;70.71;99658.09;5007351;28;20127;-74
2021/05/04 09:21:45;;;;;;;9.27;3.60;;;;;;;9.05;69.98;99657.03;5010998;28;20068;-74
2021/05/04 09:24:24;;;;;;;9.77;1.98;;;;;;;9.05;69.63;99665.88;5012121;28;20287;-73
2021/05/04 09:26:59;;;;;;;9.10;2.40;;;;;;;9.54;68.98;99671.66;5009758;28;20512;-73
2021/05/04 09:29:32;;;;;;;9.73;2.75;;;;;;;9.81;67.56;99679.28;5015563;28;20053;-74
2021/05/04 09:32:18;;;;;;;12.82;3.00;;;;;;;9.89;68.42;99686.91;5013134;28;20065;-74
2021/05/04 09:34:51;;;;;;;9.60;2.42;;;;;;;9.90;65.81;99685.97;5012691;28;20065;-74
2021/05/04 09:37:29;;;;;;;5.47;1.90;;;;;;;9.48;65.76;99684.38;5009407;28;20057;-75
2021/05/04 09:40:16;;;;;;;8.63;2.35;;;;;;;9.50;64.99;99671.84;5012672;28;20554;-75
2021/05/04 09:42:59;;;;;;;6.53;2.00;;;;;;;9.48;62.88;99703.00;5009703;28;20359;-76
2021/05/04 09:45:26;;;;;;;11.48;3.38;;;;;;;9.52;62.34;99721.47;5013082;28;20065;-77
2021/05/04 09:48:11;;;;;;;7.93;2.20;;;;;;;9.69;61.91;99696.72;5016979;28;20365;-76
2021/05/04 09:51:02;;;;;;;;;;;;;;;9.78;62.64;99716.72;5012885;28;20475;-76
2021/05/04 09:53:44;;;;;;;9.27;2.50;;;;;;;9.75;63.06;99711.53;4998498;28;19929;-76
2021/05/04 09:56:13;;;;;;;8.27;2.33;;;;;;;9.43;63.65;99716.56;5009364;28;20405;-75
2021/05/04 09:58:42;;;;;;;6.70;2.25;;;;;;;9.51;63.88;99716.19;5011722;28;20065;-76
2021/05/04 10:01:14;;;;;;;12.07;2.97;;;;;;;9.51;64.50;99716.19;5009967;28;20089;-76
2021/05/04 10:03:42;;;;;;;22.08;3.30;;;;;;;9.34;65.48;99722.28;5015196;28;20057;-75
2021/05/04 10:06:10;;;;;;;6.55;2.00;;;;;;;9.22;64.46;99754.78;5009473;28;21211;-75
2021/05/04 10:08:40;;;;;;;17.17;3.25;;;;;;;9.25;65.23;99741.34;5012556;28;20341;-75
2021/05/04 10:11:08;;;;;;;10.38;2.55;;;;;;;9.31;64.37;99741.03;5012734;28;20057;-75
2021/05/04 10:13:37;;;;;;;10.82;2.58;;;;;;;9.28;63.56;99743.84;5013372;28;20068;-77
2021/05/04 10:16:05;;;;;;;15.93;2.67;;;;;;;9.25;63.77;99783.94;5015238;28;20283;-74
2021/05/04 10:18:32;;;;;;;8.18;2.50;;;;;;;9.35;64.47;99756.81;5017164;28;20075;-77
2021/05/04 10:21:01;;;;;;;7.50;2.28;;;;;;;9.30;63.87;99772.13;5019297;28;20111;-74
2021/05/04 10:23:30;;;;;;;15.75;3.10;;;;;;;9.33;63.44;99776.44;5019031;28;20602;-75
2021/05/04 10:26:03;;;;;;;14.35;3.10;;;;;;;9.47;63.17;99760.75;5015686;28;20500;-75
2021/05/04 10:28:33;;;;;;;11.55;3.35;;;;;;;9.62;62.07;99752.97;5015613;28;20060;-75
2021/05/04 10:31:02;;;;;;;10.73;2.65;;;;;;;9.92;61.98;99764.03;5018618;28;20057;-75
2021/05/04 10:33:32;;;;;;;10.77;2.45;;;;;;;10.08;61.25;99766.88;5012804;28;20053;-75
2021/05/04 10:36:03;;;;;;;14.02;2.30;;;;;;;9.98;61.53;99769.09;5034683;28;20182;-75
2021/05/04 10:38:52;;;;;;;13.35;2.55;;;;;;;9.89;60.84;99766.84;5018236;28;20066;-70
2021/05/04 10:41:21;;;;;;;11.90;2.40;;;;;;;9.86;61.96;99777.66;5018252;28;21051;-74
2021/05/04 10:43:59;;;;;;;7.78;2.65;;;;;;;9.85;61.04;99779.44;5015916;28;20241;-75
2021/05/04 10:46:39;;;;;;;10.32;2.47;;;;;;;9.86;60.82;99783.00;5017180;28;20487;-75
2021/05/04 10:49:08;;;;;;;10.38;2.58;;;;;;;9.98;61.18;99794.88;5016555;28;20087;-74
2021/05/04 10:51:46;;;;;;;7.53;2.40;;;;;;;10.01;60.57;99786.72;5012705;28;20092;-69
2021/05/04 10:54:15;;;;;;;7.10;2.33;;;;;;;10.03;60.44;99808.88;5015056;28;20072;-70
2021/05/04 10:56:45;;;;;;;10.57;2.45;;;;;;;10.21;60.41;99799.13;5019324;28;20084;-70
2021/05/04 10:59:14;;;;;;;11.48;2.67;;;;;;;10.14;59.49;99808.34;5017598;28;20049;-70
2021/05/04 11:02:26;;;;;;;15.07;3.50;;;;;;;10.07;60.18;99815.78;5017979;28;20057;-70
2021/05/04 11:04:55;;;;;;;8.80;2.92;;;;;;;10.19;58.95;99809.88;5018839;28;20053;-71
2021/05/04 11:07:58;;;;;;;7.20;2.50;;;;;;;10.44;58.22;99806.09;5028732;28;20103;-69
2021/05/04 11:10:27;;;;;;;10.15;2.65;;;;;;;10.24;58.46;99825.66;5019364;28;20057;-72
2021/05/04 11:12:55;;;;;;;10.38;2.60;;;;;;;10.24;58.48;99830.97;5013416;28;20060;-71
2021/05/04 11:15:24;;;;;;;7.53;2.30;;;;;;;10.16;58.93;99849.13;5029803;28;20068;-72
2021/05/04 11:17:51;;;;;;;11.70;3.10;;;;;;;10.21;59.23;99861.31;5018048;28;20116;-72
2021/05/04 11:20:38;;;;;;;8.60;2.88;;;;;;;10.08;58.80;99837.03;5019751;28;20138;-72
2021/05/04 11:23:07;;;;;;;16.38;3.03;;;;;;;10.34;58.25;99818.97;5017153;28;20111;-71
2021/05/04 11:25:36;;;;;;;10.25;2.60;;;;;;;10.47;58.79;99843.25;5018214;28;20061;-72
2021/05/04 11:28:05;;;;;;;9.98;2.55;;;;;;;10.56;58.05;99833.97;5016960;28;20061;-73
2021/05/04 11:30:40;;;;;;;10.20;2.80;;;;;;;10.67;58.03;99841.44;5022516;28;20429;-73
2021/05/04 11:33:34;;;;;;;10.13;2.80;;;;;;;10.64;57.23;99816.66;5021982;28;20346;-73
2021/05/04 11:36:01;;;;;;;13.40;2.72;;;;;;;10.77;57.98;99832.91;4984684;28;20057;-73
2021/05/04 11:38:28;;;;;;;13.95;3.88;;;;;;;10.79;57.27;99844.38;5027065;28;20303;-72
2021/05/04 11:40:56;;;;;;;11.02;2.72;;;;;;;10.93;56.83;99841.06;5016316;28;20087;-76